sensor_id;sensor_type;location;lat;lon;timestamp;P1;durP1;ratioP1;P2;durP2;ratioP2
41687;SDS011;27371;42.686;23.362;2023-01-19T00:01:19;39.95;;;5.70;;
41687;SDS011;27371;42.686;23.362;2023-01-19T00:03:44;29.45;;;5.35;;
41687;SDS011;27371;42.686;23.362;2023-01-19T00:06:10;29.30;;;5.00;;
41687;SDS011;27371;42.686;23.362;2023-01-19T00:08:36;30.38;;;5.22;;
41687;SDS011;27371;42.686;23.362;2023-01-19T00:11:03;31.27;;;4.75;;
41687;SDS011;27371;42.686;23.362;2023-01-19T00:13:28;34.63;;;5.55;;
41687;SDS011;27371;42.686;23.362;2023-01-19T00:15:54;29.95;;;4.38;;
41687;SDS011;27371;42.686;23.362;2023-01-19T00:18:19;36.53;;;6.22;;
41687;SDS011;27371;42.686;23.362;2023-01-19T00:20:45;40.00;;;4.70;;
41687;SDS011;27371;42.686;23.362;2023-01-19T00:23:11;35.92;;;5.43;;
41687;SDS011;27371;42.686;23.362;2023-01-19T00:25:37;41.22;;;6.53;;
41687;SDS011;27371;42.686;23.362;2023-01-19T00:30:36;28.65;;;5.47;;
41687;SDS011;27371;42.686;23.362;2023-01-19T00:33:02;29.98;;;5.28;;
41687;SDS011;27371;42.686;23.362;2023-01-19T00:35:27;26.85;;;5.38;;
41687;SDS011;27371;42.686;23.362;2023-01-19T00:37:54;31.83;;;4.88;;
41687;SDS011;27371;42.686;23.362;2023-01-19T00:40:20;30.58;;;4.75;;
41687;SDS011;27371;42.686;23.362;2023-01-19T00:42:46;30.85;;;6.05;;
41687;SDS011;27371;42.686;23.362;2023-01-19T00:45:13;37.65;;;5.72;;
41687;SDS011;27371;42.686;23.362;2023-01-19T00:47:42;29.23;;;5.20;;
41687;SDS011;27371;42.686;23.362;2023-01-19T00:50:08;37.38;;;5.55;;
41687;SDS011;27371;42.686;23.362;2023-01-19T00:52:36;28.80;;;4.53;;
41687;SDS011;27371;42.686;23.362;2023-01-19T00:55:02;29.85;;;3.90;;
41687;SDS011;27371;42.686;23.362;2023-01-19T00:57:28;33.22;;;4.20;;
41687;SDS011;27371;42.686;23.362;2023-01-19T01:00:14;32.35;;;4.95;;
41687;SDS011;27371;42.686;23.362;2023-01-19T01:02:40;37.95;;;4.75;;
41687;SDS011;27371;42.686;23.362;2023-01-19T01:05:07;39.83;;;5.57;;
41687;SDS011;27371;42.686;23.362;2023-01-19T01:07:34;34.13;;;4.57;;
41687;SDS011;27371;42.686;23.362;2023-01-19T01:12:33;41.42;;;5.97;;
41687;SDS011;27371;42.686;23.362;2023-01-19T01:14:59;40.88;;;6.95;;
41687;SDS011;27371;42.686;23.362;2023-01-19T01:17:24;34.50;;;4.82;;
41687;SDS011;27371;42.686;23.362;2023-01-19T01:19:50;27.42;;;5.03;;
41687;SDS011;27371;42.686;23.362;2023-01-19T01:22:16;24.10;;;3.65;;
41687;SDS011;27371;42.686;23.362;2023-01-19T01:24:42;36.72;;;4.28;;
41687;SDS011;27371;42.686;23.362;2023-01-19T01:27:07;24.85;;;3.50;;
41687;SDS011;27371;42.686;23.362;2023-01-19T01:29:33;40.20;;;4.75;;
41687;SDS011;27371;42.686;23.362;2023-01-19T01:32:00;33.42;;;3.40;;
41687;SDS011;27371;42.686;23.362;2023-01-19T01:34:26;28.90;;;5.07;;
41687;SDS011;27371;42.686;23.362;2023-01-19T01:36:52;33.13;;;3.95;;
41687;SDS011;27371;42.686;23.362;2023-01-19T01:39:18;25.92;;;4.93;;
41687;SDS011;27371;42.686;23.362;2023-01-19T01:41:44;34.45;;;5.07;;
41687;SDS011;27371;42.686;23.362;2023-01-19T01:44:41;26.20;;;5.18;;
41687;SDS011;27371;42.686;23.362;2023-01-19T01:55:25;29.98;;;3.45;;
41687;SDS011;27371;42.686;23.362;2023-01-19T01:57:53;39.50;;;5.20;;
41687;SDS011;27371;42.686;23.362;2023-01-19T02:00:23;21.02;;;4.03;;
41687;SDS011;27371;42.686;23.362;2023-01-19T02:02:49;46.72;;;5.53;;
41687;SDS011;27371;42.686;23.362;2023-01-19T02:05:16;26.25;;;4.03;;
41687;SDS011;27371;42.686;23.362;2023-01-19T02:10:53;24.27;;;3.75;;
41687;SDS011;27371;42.686;23.362;2023-01-19T02:13:38;19.95;;;3.45;;
41687;SDS011;27371;42.686;23.362;2023-01-19T02:16:08;33.25;;;4.32;;
41687;SDS011;27371;42.686;23.362;2023-01-19T02:18:35;23.75;;;3.95;;
41687;SDS011;27371;42.686;23.362;2023-01-19T02:21:11;23.17;;;3.58;;
41687;SDS011;27371;42.686;23.362;2023-01-19T02:23:41;25.55;;;3.25;;
41687;SDS011;27371;42.686;23.362;2023-01-19T02:26:37;29.20;;;3.78;;
41687;SDS011;27371;42.686;23.362;2023-01-19T02:29:08;25.00;;;3.35;;
41687;SDS011;27371;42.686;23.362;2023-01-19T02:31:36;23.73;;;3.63;;
41687;SDS011;27371;42.686;23.362;2023-01-19T02:34:03;19.50;;;4.05;;
41687;SDS011;27371;42.686;23.362;2023-01-19T02:36:32;33.65;;;4.78;;
41687;SDS011;27371;42.686;23.362;2023-01-19T02:39:02;19.67;;;3.33;;
41687;SDS011;27371;42.686;23.362;2023-01-19T02:41:31;29.30;;;4.13;;
41687;SDS011;27371;42.686;23.362;2023-01-19T02:44:02;20.60;;;3.83;;
41687;SDS011;27371;42.686;23.362;2023-01-19T02:46:28;28.63;;;3.65;;
41687;SDS011;27371;42.686;23.362;2023-01-19T02:49:00;24.67;;;3.28;;
41687;SDS011;27371;42.686;23.362;2023-01-19T02:51:26;33.75;;;4.38;;
41687;SDS011;27371;42.686;23.362;2023-01-19T02:54:01;23.90;;;4.03;;
41687;SDS011;27371;42.686;23.362;2023-01-19T03:01:54;21.65;;;3.83;;
41687;SDS011;27371;42.686;23.362;2023-01-19T03:10:07;31.10;;;4.22;;
41687;SDS011;27371;42.686;23.362;2023-01-19T03:15:30;27.63;;;3.03;;
41687;SDS011;27371;42.686;23.362;2023-01-19T03:18:00;22.95;;;2.67;;
41687;SDS011;27371;42.686;23.362;2023-01-19T03:20:27;26.83;;;4.40;;
41687;SDS011;27371;42.686;23.362;2023-01-19T03:23:00;31.05;;;4.22;;
41687;SDS011;27371;42.686;23.362;2023-01-19T03:25:30;34.20;;;5.00;;
41687;SDS011;27371;42.686;23.362;2023-01-19T03:28:00;26.48;;;4.07;;
41687;SDS011;27371;42.686;23.362;2023-01-19T03:30:29;26.58;;;4.57;;
41687;SDS011;27371;42.686;23.362;2023-01-19T03:33:03;23.48;;;3.58;;
41687;SDS011;27371;42.686;23.362;2023-01-19T03:35:34;35.00;;;4.80;;
41687;SDS011;27371;42.686;23.362;2023-01-19T03:38:04;31.83;;;4.65;;
41687;SDS011;27371;42.686;23.362;2023-01-19T03:40:33;26.77;;;4.03;;
41687;SDS011;27371;42.686;23.362;2023-01-19T03:43:00;31.77;;;4.40;;
41687;SDS011;27371;42.686;23.362;2023-01-19T03:45:27;27.95;;;3.95;;
41687;SDS011;27371;42.686;23.362;2023-01-19T03:47:56;27.92;;;4.70;;
41687;SDS011;27371;42.686;23.362;2023-01-19T03:50:24;21.10;;;4.03;;
41687;SDS011;27371;42.686;23.362;2023-01-19T03:53:26;34.03;;;4.65;;
41687;SDS011;27371;42.686;23.362;2023-01-19T03:55:47;31.30;;;3.88;;
41687;SDS011;27371;42.686;23.362;2023-01-19T03:58:14;35.55;;;4.10;;
41687;SDS011;27371;42.686;23.362;2023-01-19T04:00:40;33.67;;;4.78;;
41687;SDS011;27371;42.686;23.362;2023-01-19T04:03:09;35.20;;;4.68;;
41687;SDS011;27371;42.686;23.362;2023-01-19T04:05:38;31.20;;;5.57;;
41687;SDS011;27371;42.686;23.362;2023-01-19T04:08:04;32.20;;;4.40;;
41687;SDS011;27371;42.686;23.362;2023-01-19T04:10:30;34.17;;;4.70;;
41687;SDS011;27371;42.686;23.362;2023-01-19T04:12:56;39.28;;;6.57;;
41687;SDS011;27371;42.686;23.362;2023-01-19T04:15:23;56.42;;;7.28;;
41687;SDS011;27371;42.686;23.362;2023-01-19T04:17:49;56.15;;;6.78;;
41687;SDS011;27371;42.686;23.362;2023-01-19T04:20:14;32.83;;;6.68;;
41687;SDS011;27371;42.686;23.362;2023-01-19T04:22:40;38.42;;;7.13;;
41687;SDS011;27371;42.686;23.362;2023-01-19T04:25:06;47.78;;;7.78;;
41687;SDS011;27371;42.686;23.362;2023-01-19T04:27:32;41.22;;;7.28;;
41687;SDS011;27371;42.686;23.362;2023-01-19T04:29:59;31.90;;;6.75;;
41687;SDS011;27371;42.686;23.362;2023-01-19T04:32:24;37.65;;;5.57;;
41687;SDS011;27371;42.686;23.362;2023-01-19T04:34:50;53.10;;;7.57;;
41687;SDS011;27371;42.686;23.362;2023-01-19T04:37:15;36.30;;;6.38;;
41687;SDS011;27371;42.686;23.362;2023-01-19T04:39:41;42.47;;;7.55;;
41687;SDS011;27371;42.686;23.362;2023-01-19T04:42:07;31.90;;;6.43;;
41687;SDS011;27371;42.686;23.362;2023-01-19T04:44:33;41.25;;;6.47;;
41687;SDS011;27371;42.686;23.362;2023-01-19T04:46:58;51.75;;;7.78;;
41687;SDS011;27371;42.686;23.362;2023-01-19T04:49:24;50.83;;;5.78;;
41687;SDS011;27371;42.686;23.362;2023-01-19T04:51:51;54.58;;;7.90;;
41687;SDS011;27371;42.686;23.362;2023-01-19T04:54:17;42.35;;;8.30;;
41687;SDS011;27371;42.686;23.362;2023-01-19T04:56:43;50.38;;;7.28;;
41687;SDS011;27371;42.686;23.362;2023-01-19T04:59:08;38.80;;;7.38;;
41687;SDS011;27371;42.686;23.362;2023-01-19T05:01:34;38.30;;;7.03;;
41687;SDS011;27371;42.686;23.362;2023-01-19T05:03:59;45.33;;;6.65;;
41687;SDS011;27371;42.686;23.362;2023-01-19T05:06:26;38.72;;;6.90;;
41687;SDS011;27371;42.686;23.362;2023-01-19T05:08:51;44.28;;;7.32;;
41687;SDS011;27371;42.686;23.362;2023-01-19T05:11:17;47.08;;;7.15;;
41687;SDS011;27371;42.686;23.362;2023-01-19T05:13:42;40.65;;;7.70;;
41687;SDS011;27371;42.686;23.362;2023-01-19T05:16:08;47.35;;;6.95;;
41687;SDS011;27371;42.686;23.362;2023-01-19T05:18:33;37.00;;;6.28;;
41687;SDS011;27371;42.686;23.362;2023-01-19T05:21:01;32.20;;;5.63;;
41687;SDS011;27371;42.686;23.362;2023-01-19T05:23:27;47.47;;;6.75;;
41687;SDS011;27371;42.686;23.362;2023-01-19T05:25:55;40.70;;;6.15;;
41687;SDS011;27371;42.686;23.362;2023-01-19T05:28:21;43.53;;;7.05;;
41687;SDS011;27371;42.686;23.362;2023-01-19T05:30:48;39.55;;;5.38;;
41687;SDS011;27371;42.686;23.362;2023-01-19T05:33:14;41.53;;;5.93;;
41687;SDS011;27371;42.686;23.362;2023-01-19T05:35:39;47.95;;;6.90;;
41687;SDS011;27371;42.686;23.362;2023-01-19T05:38:05;49.50;;;6.80;;
41687;SDS011;27371;42.686;23.362;2023-01-19T05:40:30;37.70;;;5.93;;
41687;SDS011;27371;42.686;23.362;2023-01-19T05:42:56;41.80;;;7.05;;
41687;SDS011;27371;42.686;23.362;2023-01-19T05:45:25;37.53;;;6.57;;
41687;SDS011;27371;42.686;23.362;2023-01-19T05:47:52;36.60;;;6.78;;
41687;SDS011;27371;42.686;23.362;2023-01-19T05:50:18;35.15;;;6.45;;
41687;SDS011;27371;42.686;23.362;2023-01-19T05:52:44;44.60;;;7.82;;
41687;SDS011;27371;42.686;23.362;2023-01-19T05:55:10;38.53;;;5.82;;
41687;SDS011;27371;42.686;23.362;2023-01-19T05:57:35;33.63;;;5.43;;
41687;SDS011;27371;42.686;23.362;2023-01-19T06:00:02;35.67;;;4.97;;
41687;SDS011;27371;42.686;23.362;2023-01-19T06:02:28;44.47;;;6.68;;
41687;SDS011;27371;42.686;23.362;2023-01-19T06:04:54;51.60;;;7.68;;
41687;SDS011;27371;42.686;23.362;2023-01-19T06:07:20;43.50;;;7.43;;
41687;SDS011;27371;42.686;23.362;2023-01-19T06:09:46;42.67;;;6.30;;
41687;SDS011;27371;42.686;23.362;2023-01-19T06:12:11;36.35;;;6.28;;
41687;SDS011;27371;42.686;23.362;2023-01-19T06:14:37;42.63;;;6.38;;
41687;SDS011;27371;42.686;23.362;2023-01-19T06:17:03;47.45;;;7.20;;
41687;SDS011;27371;42.686;23.362;2023-01-19T06:19:30;38.50;;;7.05;;
41687;SDS011;27371;42.686;23.362;2023-01-19T06:21:56;45.88;;;8.02;;
41687;SDS011;27371;42.686;23.362;2023-01-19T06:24:21;39.78;;;6.55;;
41687;SDS011;27371;42.686;23.362;2023-01-19T06:26:48;47.22;;;6.88;;
41687;SDS011;27371;42.686;23.362;2023-01-19T06:29:13;49.65;;;7.35;;
41687;SDS011;27371;42.686;23.362;2023-01-19T06:31:39;46.63;;;7.93;;
41687;SDS011;27371;42.686;23.362;2023-01-19T06:34:05;45.50;;;8.80;;
41687;SDS011;27371;42.686;23.362;2023-01-19T06:36:31;40.00;;;6.70;;
41687;SDS011;27371;42.686;23.362;2023-01-19T06:38:57;39.92;;;6.68;;
41687;SDS011;27371;42.686;23.362;2023-01-19T06:41:22;39.58;;;6.32;;
41687;SDS011;27371;42.686;23.362;2023-01-19T06:43:48;48.42;;;6.90;;
41687;SDS011;27371;42.686;23.362;2023-01-19T06:46:13;41.40;;;6.82;;
41687;SDS011;27371;42.686;23.362;2023-01-19T06:48:39;44.22;;;6.85;;
41687;SDS011;27371;42.686;23.362;2023-01-19T06:51:05;42.03;;;7.90;;
41687;SDS011;27371;42.686;23.362;2023-01-19T06:53:31;28.75;;;7.32;;
41687;SDS011;27371;42.686;23.362;2023-01-19T06:55:57;43.47;;;8.80;;
41687;SDS011;27371;42.686;23.362;2023-01-19T06:58:25;48.80;;;7.22;;
41687;SDS011;27371;42.686;23.362;2023-01-19T07:00:51;49.80;;;8.23;;
41687;SDS011;27371;42.686;23.362;2023-01-19T07:03:18;41.72;;;7.20;;
41687;SDS011;27371;42.686;23.362;2023-01-19T07:05:44;40.55;;;7.68;;
41687;SDS011;27371;42.686;23.362;2023-01-19T07:08:10;40.92;;;7.97;;
41687;SDS011;27371;42.686;23.362;2023-01-19T07:10:35;49.58;;;7.53;;
41687;SDS011;27371;42.686;23.362;2023-01-19T07:13:01;42.83;;;7.45;;
41687;SDS011;27371;42.686;23.362;2023-01-19T07:15:26;46.83;;;7.65;;
41687;SDS011;27371;42.686;23.362;2023-01-19T07:17:52;38.63;;;6.53;;
41687;SDS011;27371;42.686;23.362;2023-01-19T07:20:21;32.80;;;8.60;;
41687;SDS011;27371;42.686;23.362;2023-01-19T07:22:46;41.97;;;8.57;;
41687;SDS011;27371;42.686;23.362;2023-01-19T07:25:19;38.25;;;6.10;;
41687;SDS011;27371;42.686;23.362;2023-01-19T07:27:45;43.30;;;8.10;;
41687;SDS011;27371;42.686;23.362;2023-01-19T07:30:11;50.63;;;7.40;;
41687;SDS011;27371;42.686;23.362;2023-01-19T07:32:36;41.50;;;7.28;;
41687;SDS011;27371;42.686;23.362;2023-01-19T07:35:02;55.95;;;7.63;;
41687;SDS011;27371;42.686;23.362;2023-01-19T07:37:28;37.88;;;6.90;;
41687;SDS011;27371;42.686;23.362;2023-01-19T07:39:54;29.75;;;5.55;;
41687;SDS011;27371;42.686;23.362;2023-01-19T07:42:19;45.85;;;8.23;;
41687;SDS011;27371;42.686;23.362;2023-01-19T07:44:45;52.65;;;7.88;;
41687;SDS011;27371;42.686;23.362;2023-01-19T07:47:10;40.58;;;6.75;;
41687;SDS011;27371;42.686;23.362;2023-01-19T07:49:37;50.53;;;7.00;;
41687;SDS011;27371;42.686;23.362;2023-01-19T07:52:03;36.35;;;7.47;;
41687;SDS011;27371;42.686;23.362;2023-01-19T07:54:28;39.47;;;6.93;;
41687;SDS011;27371;42.686;23.362;2023-01-19T07:56:54;48.67;;;7.72;;
41687;SDS011;27371;42.686;23.362;2023-01-19T07:59:19;43.80;;;7.60;;
41687;SDS011;27371;42.686;23.362;2023-01-19T08:01:45;58.35;;;7.25;;
41687;SDS011;27371;42.686;23.362;2023-01-19T08:04:11;46.65;;;7.63;;
41687;SDS011;27371;42.686;23.362;2023-01-19T08:06:37;46.45;;;7.82;;
41687;SDS011;27371;42.686;23.362;2023-01-19T08:09:04;46.67;;;7.90;;
41687;SDS011;27371;42.686;23.362;2023-01-19T08:11:30;63.67;;;10.10;;
41687;SDS011;27371;42.686;23.362;2023-01-19T08:13:56;50.05;;;8.07;;
41687;SDS011;27371;42.686;23.362;2023-01-19T08:16:22;58.08;;;9.38;;
41687;SDS011;27371;42.686;23.362;2023-01-19T08:18:47;61.38;;;8.80;;
41687;SDS011;27371;42.686;23.362;2023-01-19T08:21:13;48.88;;;7.10;;
41687;SDS011;27371;42.686;23.362;2023-01-19T08:23:38;44.85;;;6.80;;
41687;SDS011;27371;42.686;23.362;2023-01-19T08:26:17;48.70;;;7.75;;
41687;SDS011;27371;42.686;23.362;2023-01-19T08:28:52;42.45;;;7.60;;
41687;SDS011;27371;42.686;23.362;2023-01-19T08:31:18;41.53;;;7.70;;
41687;SDS011;27371;42.686;23.362;2023-01-19T08:33:44;55.10;;;8.88;;
41687;SDS011;27371;42.686;23.362;2023-01-19T08:36:09;51.55;;;8.77;;
41687;SDS011;27371;42.686;23.362;2023-01-19T08:38:35;54.65;;;8.70;;
41687;SDS011;27371;42.686;23.362;2023-01-19T08:41:00;67.88;;;10.32;;
41687;SDS011;27371;42.686;23.362;2023-01-19T08:43:26;43.33;;;7.40;;
41687;SDS011;27371;42.686;23.362;2023-01-19T08:45:51;50.92;;;9.25;;
41687;SDS011;27371;42.686;23.362;2023-01-19T08:48:18;57.20;;;8.95;;
41687;SDS011;27371;42.686;23.362;2023-01-19T08:50:46;41.65;;;7.13;;
41687;SDS011;27371;42.686;23.362;2023-01-19T08:53:13;44.35;;;7.43;;
41687;SDS011;27371;42.686;23.362;2023-01-19T08:55:39;43.03;;;7.50;;
41687;SDS011;27371;42.686;23.362;2023-01-19T08:58:05;49.10;;;7.35;;
41687;SDS011;27371;42.686;23.362;2023-01-19T09:00:32;52.17;;;7.18;;
41687;SDS011;27371;42.686;23.362;2023-01-19T09:02:59;52.67;;;7.30;;
41687;SDS011;27371;42.686;23.362;2023-01-19T09:05:27;41.05;;;7.18;;
41687;SDS011;27371;42.686;23.362;2023-01-19T09:07:52;44.20;;;5.97;;
41687;SDS011;27371;42.686;23.362;2023-01-19T09:10:18;41.90;;;7.18;;
41687;SDS011;27371;42.686;23.362;2023-01-19T09:12:43;45.30;;;7.20;;
41687;SDS011;27371;42.686;23.362;2023-01-19T09:15:10;41.47;;;6.90;;
41687;SDS011;27371;42.686;23.362;2023-01-19T09:17:38;31.45;;;6.70;;
41687;SDS011;27371;42.686;23.362;2023-01-19T09:20:05;30.30;;;5.18;;
41687;SDS011;27371;42.686;23.362;2023-01-19T09:22:31;37.55;;;6.30;;
41687;SDS011;27371;42.686;23.362;2023-01-19T09:24:57;40.55;;;7.30;;
41687;SDS011;27371;42.686;23.362;2023-01-19T09:27:23;34.92;;;5.38;;
41687;SDS011;27371;42.686;23.362;2023-01-19T09:29:48;32.97;;;5.53;;
41687;SDS011;27371;42.686;23.362;2023-01-19T09:32:18;35.05;;;5.65;;
41687;SDS011;27371;42.686;23.362;2023-01-19T09:34:44;27.40;;;5.55;;
41687;SDS011;27371;42.686;23.362;2023-01-19T09:37:10;23.23;;;4.88;;
41687;SDS011;27371;42.686;23.362;2023-01-19T09:39:36;27.80;;;5.10;;
41687;SDS011;27371;42.686;23.362;2023-01-19T09:44:38;32.83;;;5.43;;
41687;SDS011;27371;42.686;23.362;2023-01-19T09:47:13;33.30;;;4.88;;
41687;SDS011;27371;42.686;23.362;2023-01-19T09:49:48;33.15;;;5.47;;
41687;SDS011;27371;42.686;23.362;2023-01-19T09:52:25;31.75;;;5.22;;
41687;SDS011;27371;42.686;23.362;2023-01-19T09:54:52;43.83;;;6.22;;
41687;SDS011;27371;42.686;23.362;2023-01-19T09:57:20;34.92;;;5.07;;
41687;SDS011;27371;42.686;23.362;2023-01-19T09:59:47;38.28;;;4.70;;
41687;SDS011;27371;42.686;23.362;2023-01-19T10:02:21;31.52;;;5.75;;
41687;SDS011;27371;42.686;23.362;2023-01-19T10:10:12;33.22;;;4.50;;
41687;SDS011;27371;42.686;23.362;2023-01-19T10:12:43;24.80;;;4.40;;
41687;SDS011;27371;42.686;23.362;2023-01-19T10:21:10;19.92;;;3.20;;
41687;SDS011;27371;42.686;23.362;2023-01-19T10:23:49;30.85;;;4.75;;
41687;SDS011;27371;42.686;23.362;2023-01-19T10:26:25;26.67;;;3.65;;
41687;SDS011;27371;42.686;23.362;2023-01-19T10:28:53;21.45;;;4.20;;
41687;SDS011;27371;42.686;23.362;2023-01-19T10:31:22;23.60;;;4.57;;
41687;SDS011;27371;42.686;23.362;2023-01-19T10:33:48;29.17;;;4.88;;
41687;SDS011;27371;42.686;23.362;2023-01-19T10:36:16;24.70;;;4.60;;
41687;SDS011;27371;42.686;23.362;2023-01-19T10:38:43;24.65;;;3.60;;
41687;SDS011;27371;42.686;23.362;2023-01-19T10:41:20;19.15;;;3.70;;
41687;SDS011;27371;42.686;23.362;2023-01-19T10:44:02;28.90;;;4.18;;
41687;SDS011;27371;42.686;23.362;2023-01-19T10:49:28;29.73;;;4.20;;
41687;SDS011;27371;42.686;23.362;2023-01-19T10:51:55;25.42;;;4.22;;
41687;SDS011;27371;42.686;23.362;2023-01-19T10:54:23;19.70;;;4.63;;
41687;SDS011;27371;42.686;23.362;2023-01-19T10:57:00;29.15;;;4.40;;
41687;SDS011;27371;42.686;23.362;2023-01-19T10:59:45;31.08;;;3.20;;
41687;SDS011;27371;42.686;23.362;2023-01-19T11:04:44;24.15;;;4.57;;
41687;SDS011;27371;42.686;23.362;2023-01-19T11:07:13;20.85;;;5.25;;
41687;SDS011;27371;42.686;23.362;2023-01-19T11:09:42;20.33;;;3.70;;
41687;SDS011;27371;42.686;23.362;2023-01-19T11:12:14;19.63;;;3.45;;
41687;SDS011;27371;42.686;23.362;2023-01-19T11:14:46;23.05;;;4.28;;
41687;SDS011;27371;42.686;23.362;2023-01-19T11:17:17;25.92;;;4.15;;
41687;SDS011;27371;42.686;23.362;2023-01-19T11:19:54;21.42;;;3.22;;
41687;SDS011;27371;42.686;23.362;2023-01-19T11:22:24;27.02;;;3.70;;
41687;SDS011;27371;42.686;23.362;2023-01-19T11:24:55;16.35;;;3.15;;
41687;SDS011;27371;42.686;23.362;2023-01-19T11:27:22;29.80;;;4.38;;
41687;SDS011;27371;42.686;23.362;2023-01-19T11:29:59;20.80;;;3.05;;
41687;SDS011;27371;42.686;23.362;2023-01-19T11:32:29;21.55;;;3.33;;
41687;SDS011;27371;42.686;23.362;2023-01-19T11:34:57;20.27;;;3.65;;
41687;SDS011;27371;42.686;23.362;2023-01-19T11:37:26;26.20;;;4.38;;
41687;SDS011;27371;42.686;23.362;2023-01-19T11:39:57;23.60;;;3.80;;
41687;SDS011;27371;42.686;23.362;2023-01-19T11:42:24;21.80;;;3.00;;
41687;SDS011;27371;42.686;23.362;2023-01-19T11:47:42;21.77;;;3.30;;
41687;SDS011;27371;42.686;23.362;2023-01-19T11:50:32;18.15;;;3.17;;
41687;SDS011;27371;42.686;23.362;2023-01-19T11:53:13;23.17;;;5.95;;
41687;SDS011;27371;42.686;23.362;2023-01-19T11:58:15;15.88;;;2.78;;
41687;SDS011;27371;42.686;23.362;2023-01-19T12:05:45;21.02;;;2.92;;
41687;SDS011;27371;42.686;23.362;2023-01-19T12:08:17;25.05;;;3.30;;
41687;SDS011;27371;42.686;23.362;2023-01-19T12:10:47;21.02;;;2.78;;
41687;SDS011;27371;42.686;23.362;2023-01-19T12:13:19;21.63;;;3.63;;
41687;SDS011;27371;42.686;23.362;2023-01-19T12:15:45;13.95;;;2.58;;
41687;SDS011;27371;42.686;23.362;2023-01-19T12:18:23;24.40;;;3.88;;
41687;SDS011;27371;42.686;23.362;2023-01-19T12:20:52;23.92;;;3.08;;
41687;SDS011;27371;42.686;23.362;2023-01-19T12:28:47;14.20;;;2.55;;
41687;SDS011;27371;42.686;23.362;2023-01-19T12:31:18;14.07;;;2.83;;
41687;SDS011;27371;42.686;23.362;2023-01-19T12:33:45;17.10;;;2.63;;
41687;SDS011;27371;42.686;23.362;2023-01-19T12:41:44;16.20;;;2.90;;
41687;SDS011;27371;42.686;23.362;2023-01-19T12:46:36;13.88;;;2.22;;
41687;SDS011;27371;42.686;23.362;2023-01-19T12:49:10;17.50;;;2.75;;
41687;SDS011;27371;42.686;23.362;2023-01-19T12:51:38;14.85;;;3.10;;
41687;SDS011;27371;42.686;23.362;2023-01-19T12:54:05;15.70;;;2.72;;
41687;SDS011;27371;42.686;23.362;2023-01-19T12:56:33;21.88;;;3.58;;
41687;SDS011;27371;42.686;23.362;2023-01-19T12:59:01;14.95;;;2.97;;
41687;SDS011;27371;42.686;23.362;2023-01-19T13:01:28;15.63;;;2.20;;
41687;SDS011;27371;42.686;23.362;2023-01-19T13:04:05;22.23;;;2.45;;
41687;SDS011;27371;42.686;23.362;2023-01-19T13:09:35;16.70;;;2.78;;
41687;SDS011;27371;42.686;23.362;2023-01-19T13:12:21;19.50;;;2.75;;
41687;SDS011;27371;42.686;23.362;2023-01-19T13:14:48;16.40;;;3.45;;
41687;SDS011;27371;42.686;23.362;2023-01-19T13:17:35;14.57;;;2.55;;
41687;SDS011;27371;42.686;23.362;2023-01-19T13:20:30;10.57;;;1.63;;
41687;SDS011;27371;42.686;23.362;2023-01-19T13:25:39;10.10;;;2.03;;
41687;SDS011;27371;42.686;23.362;2023-01-19T13:28:08;12.35;;;2.55;;
41687;SDS011;27371;42.686;23.362;2023-01-19T13:30:35;10.52;;;2.30;;
41687;SDS011;27371;42.686;23.362;2023-01-19T13:33:13;12.30;;;3.17;;
41687;SDS011;27371;42.686;23.362;2023-01-19T13:35:53;9.40;;;2.33;;
41687;SDS011;27371;42.686;23.362;2023-01-19T13:38:23;11.40;;;2.28;;
41687;SDS011;27371;42.686;23.362;2023-01-19T13:40:50;13.35;;;2.42;;
41687;SDS011;27371;42.686;23.362;2023-01-19T13:43:18;12.65;;;2.85;;
41687;SDS011;27371;42.686;23.362;2023-01-19T13:45:50;19.48;;;2.30;;
41687;SDS011;27371;42.686;23.362;2023-01-19T13:48:18;13.70;;;1.90;;
41687;SDS011;27371;42.686;23.362;2023-01-19T13:50:56;10.93;;;2.15;;
41687;SDS011;27371;42.686;23.362;2023-01-19T13:53:30;12.85;;;2.50;;
41687;SDS011;27371;42.686;23.362;2023-01-19T13:56:11;13.48;;;2.30;;
41687;SDS011;27371;42.686;23.362;2023-01-19T14:01:18;16.30;;;2.75;;
41687;SDS011;27371;42.686;23.362;2023-01-19T14:03:44;9.02;;;2.63;;
41687;SDS011;27371;42.686;23.362;2023-01-19T14:06:32;11.40;;;2.42;;
41687;SDS011;27371;42.686;23.362;2023-01-19T14:09:13;18.10;;;3.05;;
41687;SDS011;27371;42.686;23.362;2023-01-19T14:11:47;7.05;;;1.95;;
41687;SDS011;27371;42.686;23.362;2023-01-19T14:14:49;8.00;;;1.70;;
41687;SDS011;27371;42.686;23.362;2023-01-19T14:19:55;10.57;;;2.38;;
41687;SDS011;27371;42.686;23.362;2023-01-19T14:22:41;11.93;;;1.98;;
41687;SDS011;27371;42.686;23.362;2023-01-19T14:25:27;9.68;;;1.83;;
41687;SDS011;27371;42.686;23.362;2023-01-19T14:30:59;8.80;;;2.05;;
41687;SDS011;27371;42.686;23.362;2023-01-19T14:33:42;10.10;;;2.28;;
41687;SDS011;27371;42.686;23.362;2023-01-19T14:36:55;6.05;;;1.50;;
41687;SDS011;27371;42.686;23.362;2023-01-19T14:38:57;10.48;;;1.85;;
41687;SDS011;27371;42.686;23.362;2023-01-19T14:41:29;15.77;;;2.53;;
41687;SDS011;27371;42.686;23.362;2023-01-19T14:43:58;16.83;;;2.00;;
41687;SDS011;27371;42.686;23.362;2023-01-19T14:46:24;8.45;;;1.50;;
41687;SDS011;27371;42.686;23.362;2023-01-19T14:48:59;11.32;;;2.83;;
41687;SDS011;27371;42.686;23.362;2023-01-19T14:51:27;9.95;;;2.40;;
41687;SDS011;27371;42.686;23.362;2023-01-19T14:53:54;8.48;;;1.92;;
41687;SDS011;27371;42.686;23.362;2023-01-19T14:56:28;8.48;;;2.03;;
41687;SDS011;27371;42.686;23.362;2023-01-19T14:58:57;7.55;;;1.50;;
41687;SDS011;27371;42.686;23.362;2023-01-19T15:01:25;9.98;;;1.73;;
41687;SDS011;27371;42.686;23.362;2023-01-19T15:03:56;13.00;;;2.17;;
41687;SDS011;27371;42.686;23.362;2023-01-19T15:06:22;7.28;;;1.83;;
41687;SDS011;27371;42.686;23.362;2023-01-19T15:08:49;12.30;;;1.73;;
41687;SDS011;27371;42.686;23.362;2023-01-19T15:13:42;10.93;;;2.88;;
41687;SDS011;27371;42.686;23.362;2023-01-19T15:16:09;12.18;;;2.50;;
41687;SDS011;27371;42.686;23.362;2023-01-19T15:18:34;7.43;;;2.55;;
41687;SDS011;27371;42.686;23.362;2023-01-19T15:21:00;14.00;;;2.33;;
41687;SDS011;27371;42.686;23.362;2023-01-19T15:23:27;8.23;;;1.58;;
41687;SDS011;27371;42.686;23.362;2023-01-19T15:26:00;12.43;;;2.70;;
41687;SDS011;27371;42.686;23.362;2023-01-19T15:28:28;9.23;;;2.08;;
41687;SDS011;27371;42.686;23.362;2023-01-19T15:30:54;12.82;;;3.10;;
41687;SDS011;27371;42.686;23.362;2023-01-19T15:33:20;8.95;;;1.80;;
41687;SDS011;27371;42.686;23.362;2023-01-19T15:35:47;13.50;;;2.17;;
41687;SDS011;27371;42.686;23.362;2023-01-19T15:38:13;18.92;;;3.17;;
41687;SDS011;27371;42.686;23.362;2023-01-19T15:40:39;13.32;;;2.88;;
41687;SDS011;27371;42.686;23.362;2023-01-19T15:43:04;14.60;;;3.47;;
41687;SDS011;27371;42.686;23.362;2023-01-19T15:45:34;13.88;;;2.70;;
41687;SDS011;27371;42.686;23.362;2023-01-19T15:48:05;9.93;;;2.67;;
41687;SDS011;27371;42.686;23.362;2023-01-19T15:50:37;10.05;;;2.90;;
41687;SDS011;27371;42.686;23.362;2023-01-19T15:53:04;11.00;;;3.03;;
41687;SDS011;27371;42.686;23.362;2023-01-19T15:55:30;12.20;;;2.35;;
41687;SDS011;27371;42.686;23.362;2023-01-19T15:57:55;9.63;;;2.15;;
41687;SDS011;27371;42.686;23.362;2023-01-19T16:00:26;11.57;;;2.20;;